Latest Weather Observations for Albion Park

IDN60801

Issued at 3:22 pm EST Thursday 28 May 2020 (issued every 10 minutes, with the page automatically refreshed every 10 minutes)

About weather observations | Map of weather stations | Latest weather observations for NSW | Other Formats
Station Details ID: 068241 Name: SHELLHARBOUR AIRPORT Lat: -34.56 Lon: 150.79 Height: 8.0 m
Data from the previous 72 hours. | See also: Recent months at Albion Park
Date/Time
EST
Temp
°C
App
Temp
°C
Dew
Point
°C
Rel
Hum
%
Delta-T
°C
Wind Press
QNH
hPa
Press
MSL
hPa
Rain since
9am
mm
Dir  Spd
km/h
Gust
km/h
Spd
kts
Gust
kts
28/03:00pm 21.3 17.9 9.2 46 6.4 SW 17 24 9 13 1019.4 1019.4 0.0
28/02:30pm 20.3 17.7 9.2 49 5.9 SW 13 20 7 11 1019.3 1019.3 0.0
28/02:00pm 21.7 18.9 8.6 43 6.9 SW 13 20 7 11 1019.2 1019.2 0.0
28/01:30pm 21.7 19.0 8.9 44 6.8 WSW 13 20 7 11 1019.2 1019.2 0.0
28/01:00pm 21.5 17.7 9.1 45 6.6 W 19 24 10 13 1019.4 1019.4 0.0
28/12:30pm 21.5 18.2 9.4 46 6.5 W 17 19 9 10 1019.6 1019.6 0.0
28/12:00pm 21.4 18.5 9.6 47 6.3 SW 15 20 8 11 1019.9 1019.9 0.0
28/11:30am 21.4 20.6 11.1 52 5.7 SE 6 11 3 6 1020.2 1020.2 0.0
28/11:00am 20.9 20.2 11.5 55 5.2 E 6 11 3 6 1020.5 1020.5 0.0
28/10:30am 20.4 20.4 11.1 55 5.1 NNW 2 7 1 4 1020.7 1020.7 0.0
28/10:00am 19.3 18.3 11.1 59 4.5 SSW 7 13 4 7 1020.8 1020.8 0.0
28/09:30am 18.9 18.0 11.2 61 4.2 NW 7 13 4 7 1020.9 1020.9 0.0
28/09:00am 16.9 16.1 12.8 77 2.3 W 9 15 5 8 1020.8 1020.8 0.0
28/08:30am 13.1 12.9 13.1 100 0.0 SSW 6 11 3 6 1020.9 1020.9 0.0
28/08:00am 10.6 9.7 10.6 100 0.0 WSW 6 9 3 5 1020.7 1020.7 0.0
28/07:30am 8.7 7.2 8.6 99 0.0 SSW 6 7 3 4 1020.6 1020.6 0.0
28/07:00am 7.3 5.3 7.2 99 0.0 SSW 7 11 4 6 1020.5 1020.5 0.0
28/06:30am 7.2 6.1 7.1 99 0.0 ESE 2 6 1 3 1020.1 1020.1 0.0
28/06:00am 7.5 6.9 7.4 99 0.0 CALM 0 0 0 0 1019.8 1019.8 0.0
28/05:30am 7.9 7.0 7.8 99 0.0 S 2 9 1 5 1019.5 1019.5 0.0
28/05:00am 7.9 7.4 7.8 99 0.0 CALM 0 6 0 3 1019.5 1019.5 0.0
28/04:30am 8.5 7.8 8.4 99 0.0 S 2 6 1 3 1019.7 1019.7 0.0
28/04:00am 8.9 7.5 8.8 99 0.0 WSW 6 9 3 5 1019.8 1019.8 0.0
28/03:30am 9.3 8.4 9.2 99 0.0 WNW 4 9 2 5 1019.8 1019.8 0.0
28/03:00am 8.9 7.9 8.8 99 0.0 WSW 4 7 2 4 1020.0 1020.0 0.0
28/02:30am 9.4 8.5 9.3 99 0.0 SW 4 11 2 6 1019.9 1019.9 0.0
28/02:00am 9.5 8.3 9.4 99 0.0 WNW 6 7 3 4 1019.8 1019.8 0.0
28/01:30am 8.8 7.4 8.7 99 0.0 W 6 9 3 5 1019.9 1019.9 0.0
28/01:00am 9.3 8.8 9.2 99 0.0 WSW 2 6 1 3 1019.9 1019.9 0.0
28/12:31am 9.3 7.1 9.2 99 0.0 W 11 15 6 8 1020.2 1020.2 0.0
28/12:30am 9.0 7.1 8.9 99 0.0 W 9 13 5 7 1020.2 1020.2 0.0
28/12:11am 8.5 8.1 8.4 99 0.0 CALM 0 0 0 0 1020.1 1020.1 0.0
28/12:00am 8.6 8.3 8.5 99 0.0 CALM 0 0 0 0 1020.1 1020.1 0.0
 
Date/Time
EST
Temp
°C
App
Temp
°C
Dew
Point
°C
Rel
Hum
%
Delta-T
°C
Wind Press
QNH
hPa
Press
MSL
hPa
Rain since
9am
mm
Dir  Spd
km/h
Gust
km/h
Spd
kts
Gust
kts
27/11:30pm 9.6 8.2 9.5 99 0.0 WSW 7 9 4 5 1020.5 1020.5 0.0
27/11:00pm 10.0 10.0 9.9 99 0.1 CALM 0 6 0 3 1020.4 1020.4 0.0
27/10:30pm 10.1 10.2 10.0 99 0.1 CALM 0 0 0 0 1020.9 1020.9 0.0
27/10:00pm 10.5 9.5 10.3 99 0.1 W 6 7 3 4 1021.0 1021.0 0.0
27/09:30pm 11.0 10.5 10.8 99 0.1 WSW 4 6 2 3 1021.0 1021.0 0.0
27/09:00pm 10.9 9.8 10.7 99 0.1 W 7 11 4 6 1021.1 1021.1 0.0
27/08:30pm 11.6 11.7 11.4 99 0.1 W 2 7 1 4 1021.0 1021.0 0.0
27/08:00pm 11.8 11.2 11.6 99 0.1 W 6 7 3 4 1021.0 1021.0 0.0
27/07:30pm 12.1 11.4 11.9 99 0.1 W 7 9 4 5 1020.8 1020.8 0.0
27/07:00pm 12.7 12.3 12.5 99 0.1 W 6 9 3 5 1020.8 1020.8 0.0
27/06:30pm 13.1 13.2 12.8 98 0.2 WSW 4 6 2 3 1020.6 1020.6 0.0
27/06:00pm 13.1 12.5 12.2 94 0.5 W 7 11 4 6 1020.5 1020.5 0.0
27/05:30pm 14.0 13.1 12.7 92 0.7 W 9 9 5 5 1020.3 1020.3 0.0
27/05:00pm 14.6 13.6 12.3 86 1.2 SW 9 11 5 6 1020.1 1020.1 0.0
27/04:30pm 15.6 15.1 12.7 83 1.6 ESE 7 9 4 5 1020.0 1020.0 0.0
27/04:00pm 16.6 15.8 11.7 73 2.7 E 7 11 4 6 1019.9 1019.9 0.0
27/03:30pm 17.7 17.0 11.9 69 3.2 E 7 11 4 6 1019.9 1019.9 0.0
27/03:00pm 18.1 17.1 12.3 69 3.2 ESE 9 13 5 7 1019.9 1019.9 0.0
27/02:30pm 18.8 17.3 11.9 64 3.8 ESE 11 15 6 8 1020.0 1020.0 0.0
27/02:00pm 19.2 17.7 12.0 63 4.0 NE 11 15 6 8 1020.1 1020.1 0.0
27/01:30pm 18.3 17.4 11.4 64 3.8 NE 7 13 4 7 1020.5 1020.5 0.0
27/01:00pm 19.2 17.8 12.2 64 3.9 NE 11 15 6 8 1020.7 1020.7 0.0
27/12:30pm 19.2 18.5 11.5 61 4.2 N 6 9 3 5 1021.0 1021.0 0.0
27/12:00pm 18.4 17.3 11.9 66 3.6 ENE 9 13 5 7 1021.3 1021.3 0.0
27/11:30am 19.2 19.1 13.2 68 3.4 SE 6 11 3 6 1021.7 1021.7 0.0
27/11:00am 18.4 17.6 11.7 65 3.7 S 7 11 4 6 1022.3 1022.3 0.0
27/10:30am 18.5 17.9 11.8 65 3.7 W 6 9 3 5 1022.6 1022.6 0.0
27/10:00am 17.6 17.3 11.4 67 3.4 WNW 4 9 2 5 1022.9 1022.9 0.0
27/09:30am 17.0 16.1 12.5 75 2.5 W 9 13 5 7 1022.9 1022.9 0.0
27/09:00am 15.9 14.2 12.6 81 1.8 W 13 17 7 9 1023.0 1023.0 3.0
27/08:30am 14.8 13.4 12.3 85 1.4 WSW 11 17 6 9 1023.0 1023.0 3.0
27/08:00am 12.7 11.7 12.4 98 0.2 SW 9 11 5 6 1022.9 1022.9 3.0
27/07:30am 10.8 9.9 10.6 99 0.1 SW 6 7 3 4 1022.8 1022.8 3.0
27/07:00am 10.2 8.6 10.1 99 0.1 SW 9 13 5 7 1022.8 1022.8 3.0
27/06:30am 9.9 8.2 9.8 99 0.1 WSW 9 11 5 6 1022.6 1022.6 3.0
27/06:00am 10.6 9.4 10.4 99 0.1 WSW 7 9 4 5 1022.3 1022.3 3.0
27/05:30am 11.2 10.7 10.7 97 0.3 WSW 4 7 2 4 1022.4 1022.4 3.0
27/05:00am 11.9 10.6 11.4 97 0.3 WSW 9 13 5 7 1022.3 1022.3 3.0
27/04:30am 12.0 10.4 11.5 97 0.3 WSW 11 15 6 8 1022.4 1022.4 3.0
27/04:00am 12.2 11.5 11.4 95 0.4 WSW 6 9 3 5 1022.4 1022.4 3.0
27/03:30am 13.0 11.4 12.7 98 0.2 SW 13 17 7 9 1022.6 1022.6 3.0
27/03:00am 13.0 11.8 12.7 98 0.2 SW 11 15 6 8 1023.2 1023.2 3.0
27/02:30am 12.6 10.9 12.4 99 0.1 WSW 13 13 7 7 1023.3 1023.3 3.0
27/02:00am 12.1 12.7 11.9 99 0.1 CALM 0 7 0 4 1023.3 1023.3 3.0
27/01:30am 12.0 11.2 11.8 99 0.1 SW 7 13 4 7 1023.6 1023.6 3.0
27/01:00am 12.6 12.6 12.4 99 0.1 SSE 4 9 2 5 1023.6 1023.6 3.0
27/12:30am 12.9 12.0 12.7 99 0.1 E 9 9 5 5 1023.8 1023.8 3.0
27/12:00am 13.1 12.6 12.6 97 0.3 NNW 7 11 4 6 1023.8 1023.8 3.0
 
Date/Time
EST
Temp
°C
App
Temp
°C
Dew
Point
°C
Rel
Hum
%
Delta-T
°C
Wind Press
QNH
hPa
Press
MSL
hPa
Rain since
9am
mm
Dir  Spd
km/h
Gust
km/h
Spd
kts
Gust
kts
26/11:30pm 13.4 13.1 12.8 96 0.3 W 6 9 3 5 1024.1 1024.1 3.0
26/11:00pm 13.0 12.2 12.8 99 0.1 W 9 11 5 6 1024.0 1024.0 3.0
26/10:30pm 12.8 11.5 12.6 99 0.1 W 11 13 6 7 1023.8 1023.8 3.0
26/10:00pm 13.4 13.3 13.2 99 0.1 W 6 7 3 4 1024.0 1024.0 2.8
26/09:57pm 13.4 13.3 13.2 99 0.1 W 6 9 3 5 1024.0 1024.0 2.8
26/09:37pm 13.5 13.7 13.2 98 0.2 WSW 4 7 2 4 1024.2 1024.2 2.6
26/09:30pm 13.4 14.3 12.9 97 0.3 CALM 0 6 0 3 1024.2 1024.2 1.6
26/09:00pm 13.6 12.8 13.0 96 0.3 WSW 9 11 5 6 1023.9 1023.9 1.6
26/08:43pm 14.3 14.9 13.0 92 0.7 SW 2 7 1 4 1024.1 1024.1 1.6
26/08:30pm 14.4 14.0 13.0 91 0.8 E 7 13 4 7 1024.0 1024.0 1.6
26/08:22pm 14.7 13.6 13.1 90 0.9 ENE 11 17 6 9 1024.1 1024.1 1.2
26/08:00pm 15.1 13.7 12.2 83 1.6 SSW 11 15 6 8 1023.7 1023.7 1.0
26/07:30pm 15.5 14.2 12.4 82 1.7 SSE 11 19 6 10 1023.8 1023.8 1.0
26/07:00pm 15.4 14.1 12.5 83 1.6 S 11 17 6 9 1023.4 1023.4 1.0
26/06:30pm 15.4 14.0 12.3 82 1.7 SSW 11 17 6 9 1023.4 1023.4 1.0
26/06:00pm 15.3 13.8 11.9 80 1.8 S 11 15 6 8 1023.1 1023.1 1.0
26/05:30pm 15.8 13.7 12.4 80 1.9 S 15 17 8 9 1022.9 1022.9 1.0
26/05:00pm 15.8 14.1 12.4 80 1.9 S 13 17 7 9 1022.9 1022.9 1.0
26/04:30pm 16.2 13.3 12.4 78 2.1 SSW 19 26 10 14 1022.8 1022.8 1.0
26/04:00pm 16.7 13.9 12.5 76 2.3 S 19 22 10 12 1022.6 1022.6 1.0
26/03:30pm 17.2 14.2 12.5 74 2.6 S 20 26 11 14 1022.3 1022.3 1.0
26/03:00pm 17.5 14.8 12.8 74 2.6 S 19 26 10 14 1022.2 1022.2 1.0
26/02:30pm 17.4 14.3 12.1 71 2.9 S 20 30 11 16 1022.1 1022.1 1.0
26/02:00pm 17.9 15.1 13.2 74 2.6 S 20 28 11 15 1022.3 1022.3 1.0
26/01:30pm 17.2 14.3 12.9 76 2.4 S 20 28 11 15 1022.6 1022.6 1.0
26/01:00pm 17.2 14.9 13.1 77 2.3 SSW 17 24 9 13 1022.8 1022.8 1.0
26/12:30pm 17.6 15.0 13.7 78 2.2 S 20 30 11 16 1023.0 1023.0 1.0
26/12:00pm 16.4 14.7 14.6 89 1.0 S 17 20 9 11 1023.4 1023.4 1.0
26/11:30am 16.2 14.2 14.9 92 0.7 S 19 28 10 15 1023.8 1023.8 1.0
26/11:00am 16.3 15.0 14.7 90 0.9 SSW 15 19 8 10 1024.0 1024.0 1.0
26/10:38am 15.6 15.1 15.0 96 0.3 SSW 11 17 6 9 1024.0 1024.0 1.0
26/10:30am 15.2 14.6 14.7 97 0.3 S 11 15 6 8 1024.1 1024.1 1.0
26/10:07am 15.4 13.0 14.4 94 0.6 S 20 26 11 14 1024.0 1024.0 0.6
26/10:00am 15.7 13.6 14.6 93 0.6 S 19 26 10 14 1023.9 1023.9 0.2
26/09:59am 15.8 13.7 14.7 93 0.6 S 19 26 10 14 1023.9 1023.9 0.2
26/09:52am 15.7 14.3 14.4 92 0.7 SSW 15 20 8 11 1023.9 1023.9 0.2
26/09:47am 15.4 14.3 14.4 94 0.6 S 13 19 7 10 1023.9 1023.9 0.2
26/09:41am 15.2 13.7 14.1 93 0.6 S 15 20 8 11 1023.9 1023.9 0.2
26/09:30am 15.6 13.6 13.8 89 1.0 S 17 22 9 12 1023.9 1023.9 0.0
26/09:00am 14.8 13.1 13.5 92 0.7 S 15 24 8 13 1023.7 1023.7 1.0
26/08:30am 14.1 11.9 13.3 95 0.4 SSW 17 20 9 11 1023.4 1023.4 1.0
26/08:17am 13.8 11.5 13.0 95 0.4 S 17 22 9 12 1023.3 1023.3 1.0
26/08:06am 13.7 10.8 12.9 95 0.4 S 20 24 11 13 1023.2 1023.2 1.0
26/08:02am 13.7 10.4 12.9 95 0.4 S 22 30 12 16 1023.2 1023.2 1.0
26/08:00am 13.7 10.4 12.9 95 0.4 S 22 39 12 21 1023.2 1023.2 0.8
26/07:46am 14.0 11.1 12.9 93 0.6 S 20 28 11 15 1023.1 1023.1 0.6
26/07:44am 14.0 11.1 12.9 93 0.6 S 20 30 11 16 1023.1 1023.1 0.6
26/07:30am 13.6 9.9 12.7 94 0.5 S 24 32 13 17 1022.8 1022.8 0.4
26/07:25am 13.8 9.6 12.5 92 0.7 S 26 35 14 19 1022.9 1022.9 0.4
26/07:00am 14.2 9.6 12.2 88 1.1 S 28 39 15 21 1022.6 1022.6 0.0
26/06:30am 14.5 9.7 11.8 84 1.5 SSW 28 39 15 21 1022.2 1022.2 0.0
26/06:00am 14.4 10.1 11.9 85 1.3 SSW 26 39 14 21 1022.1 1022.1 0.0
26/05:30am 14.5 10.4 11.5 82 1.6 SSW 24 35 13 19 1022.0 1022.0 0.0
26/05:00am 14.0 9.2 11.7 86 1.2 SSW 28 43 15 23 1021.8 1021.8 0.0
26/04:30am 14.2 8.6 11.5 84 1.4 SSW 32 48 17 26 1021.6 1021.6 0.0
26/04:29am 14.2 9.0 11.7 85 1.3 SSW 30 48 16 26 1021.6 1021.6 0.0
26/04:00am 14.2 8.6 11.5 84 1.4 SSW 32 48 17 26 1021.5 1021.5 0.0
26/03:33am 14.0 8.5 11.7 86 1.2 SSW 32 50 17 27 1021.6 1021.6 0.0
26/03:30am 13.8 8.2 11.5 86 1.2 SSW 32 43 17 23 1021.7 1021.7 0.0
26/03:00am 14.0 8.2 11.5 85 1.3 SSW 33 54 18 29 1021.6 1021.6 0.0
26/02:56am 14.1 8.0 11.6 85 1.3 SSW 35 54 19 29 1021.6 1021.6 0.0
26/02:30am 14.1 8.3 11.4 84 1.4 SSW 33 46 18 25 1021.9 1021.9 0.0
26/02:00am 13.8 8.3 11.7 87 1.1 SSW 32 44 17 24 1021.8 1021.8 0.0
26/01:30am 13.7 7.5 11.4 86 1.2 SSW 35 48 19 26 1022.0 1022.0 0.0
26/01:00am 13.8 8.0 11.5 86 1.2 SSW 33 52 18 28 1022.0 1022.0 0.0
26/12:30am 13.7 8.4 11.4 86 1.2 SSW 30 48 16 26 1022.0 1022.0 0.0
26/12:00am 13.4 8.6 11.8 90 0.9 SSW 28 50 15 27 1022.2 1022.2 0.0
 
Date/Time
EST
Temp
°C
App
Temp
°C
Dew
Point
°C
Rel
Hum
%
Delta-T
°C
Wind Press
QNH
hPa
Press
MSL
hPa
Rain since
9am
mm
Dir  Spd
km/h
Gust
km/h
Spd
kts
Gust
kts
25/11:32pm 13.9 8.3 11.4 85 1.3 SSW 32 50 17 27 1022.3 1022.3 0.0
25/11:30pm 13.9 8.3 11.4 85 1.3 SSW 32 44 17 24 1022.3 1022.3 0.0
25/11:11pm 13.7 7.6 11.6 87 1.1 SSW 35 57 19 31 1022.0 1022.0 0.0
25/11:00pm 13.5 7.4 11.6 88 1.0 SSW 35 52 19 28 1022.0 1022.0 0.0
25/10:50pm 13.6 7.0 11.5 87 1.1 SSW 37 56 20 30 1022.0 1022.0 0.0
25/10:30pm 14.0 8.1 11.3 84 1.4 SSW 33 61 18 33 1021.7 1021.7 0.0
25/10:23pm 14.2 8.6 11.5 84 1.4 SSW 32 61 17 33 1021.6 1021.6 0.0
25/10:08pm 14.0 7.8 11.5 85 1.3 SSW 35 57 19 31 1021.4 1021.4 0.0
25/10:02pm 14.2 8.0 11.5 84 1.4 SSW 35 57 19 31 1021.4 1021.4 0.0
25/10:00pm 13.9 8.1 11.6 86 1.2 SSW 33 46 18 25 1021.4 1021.4 0.0
25/09:30pm 14.1 8.5 12.0 87 1.1 SSW 33 52 18 28 1021.5 1021.5 0.0
25/09:05pm 14.0 9.3 12.0 88 1.1 SSW 28 50 15 27 1021.2 1021.2 0.0
25/09:00pm 14.0 9.3 12.0 88 1.1 SSW 28 44 15 24 1021.3 1021.3 0.0
25/08:33pm 14.1 9.6 12.5 90 0.9 SSW 28 46 15 25 1021.0 1021.0 0.0
25/08:30pm 14.0 9.8 12.4 90 0.9 SSW 26 44 14 24 1021.0 1021.0 0.0
25/08:10pm 14.2 9.6 12.2 88 1.1 SSW 28 56 15 30 1020.8 1020.8 0.0
25/08:00pm 14.4 10.2 12.3 87 1.1 SSW 26 39 14 21 1020.9 1020.9 0.0
25/07:41pm 14.0 9.5 12.6 91 0.8 SSW 28 50 15 27 1020.7 1020.7 0.0
25/07:30pm 14.0 9.8 12.4 90 0.9 SSW 26 50 14 27 1020.4 1020.4 0.0
25/07:02pm 13.9 9.3 12.3 90 0.9 SSW 28 46 15 25 1020.2 1020.2 0.0
25/07:00pm 14.0 9.0 12.2 89 1.0 SSW 30 46 16 25 1020.2 1020.2 0.0
25/06:30pm 13.9 10.1 12.5 91 0.8 SSW 24 35 13 19 1020.1 1020.1 0.0
25/06:00pm 14.0 9.1 12.6 91 0.8 SSW 30 56 16 30 1019.9 1019.9 0.0
25/05:34pm 14.3 9.7 12.3 88 1.1 SSW 28 46 15 25 1019.7 1019.7 0.0
25/05:30pm 14.2 10.1 12.6 90 0.9 SSW 26 46 14 25 1019.6 1019.6 0.0
25/05:00pm 14.1 8.6 12.5 90 0.9 SSW 33 46 18 25 1019.3 1019.3 0.0
25/04:30pm 14.2 8.3 12.4 89 1.0 SSW 35 57 19 31 1018.9 1018.9 0.0
25/04:09pm 14.1 9.1 12.1 88 1.1 SSW 30 48 16 26 1018.9 1018.9 0.0
25/04:00pm 14.2 8.8 12.1 87 1.1 SSW 32 44 17 24 1018.9 1018.9 0.0
25/03:33pm 14.7 9.0 11.8 83 1.6 SSW 33 57 18 31 1018.9 1018.9 0.0
25/03:30pm 14.8 9.3 11.8 82 1.6 SSW 32 44 17 24 1018.9 1018.9 0.0

Other formats

Comma delimited format used in spreadsheet applications
http://www.bom.gov.au/fwo/IDN60801/IDN60801.95748.axf

JavaScript Object Notation format (JSON) in row-major order
http://www.bom.gov.au/fwo/IDN60801/IDN60801.95748.json

Data quality

Most of these data are generated automatically and are frequently updated. Quality checks on data are not normally performed. It is possible for incorrect values to appear. Refer to information at About Latest Weather Observations and please check the disclaimer before using these data.